Time;durP1;ratioP1;P1;durP2;ratioP2;P2;SDS_P1;SDS_P2;PMS_P1;PMS_P2;Temp;Humidity;BMP_temperature;BMP_pressure;BME280_temperature;BME280_humidity;BME280_pressure;Samples;Min_cycle;Max_cycle;Signal;HPM_P1;HPM_P2
2021/04/30 00:01:15;;;;;;;3.13;2.53;;;;;;;15.19;54.36;98586.56;5058898;28;20575;-85
2021/04/30 00:03:41;;;;;;;3.20;2.50;;;;;;;15.01;55.24;98586.34;5076798;28;20601;-86
2021/04/30 00:06:07;;;;;;;3.83;2.43;;;;;;;14.92;55.80;98596.88;5059655;28;20235;-86
2021/04/30 00:08:34;;;;;;;4.23;2.57;;;;;;;15.01;55.28;98607.91;5076233;28;20644;-84
2021/04/30 00:11:01;;;;;;;3.87;2.50;;;;;;;15.19;54.37;98621.63;5059971;28;20232;-85
2021/04/30 00:13:29;;;;;;;2.50;2.30;;;;;;;15.14;54.49;98620.81;5059941;28;20315;-84
2021/04/30 00:15:56;;;;;;;4.43;2.67;;;;;;;15.02;54.97;98617.63;5077874;28;20669;-85
2021/04/30 00:18:22;;;;;;;5.83;2.83;;;;;;;15.04;55.62;98631.63;5058778;28;20232;-84
2021/04/30 00:20:56;;;;;;;2.80;2.47;;;;;;;14.92;55.85;98624.66;5040178;28;20227;-85
2021/04/30 00:23:25;;;;;;;3.63;2.30;;;;;;;14.89;56.31;98641.38;5055539;28;20235;-85
2021/04/30 00:26:03;;;;;;;3.67;2.30;;;;;;;14.92;56.50;98642.72;5059595;28;20234;-85
2021/04/30 00:28:30;;;;;;;4.00;2.60;;;;;;;14.97;55.80;98654.31;5042545;28;20591;-84
2021/04/30 00:30:57;;;;;;;3.07;2.80;;;;;;;14.94;55.24;98637.84;5039858;28;20278;-84
2021/04/30 00:33:24;;;;;;;3.63;2.33;;;;;;;15.07;55.29;98658.88;5055012;28;20231;-84
2021/04/30 00:35:51;;;;;;;3.57;2.50;;;;;;;14.99;55.30;98654.84;5059748;28;20609;-85
2021/04/30 00:38:19;;;;;;;3.93;2.73;;;;;;;15.02;55.03;98641.91;5059016;28;20585;-85
2021/04/30 00:40:47;;;;;;;3.27;2.80;;;;;;;15.22;54.01;98655.34;5059385;28;20230;-84
2021/04/30 00:43:14;;;;;;;3.63;2.60;;;;;;;15.21;53.64;98651.81;5046638;28;20575;-84
2021/04/30 00:45:40;;;;;;;3.70;2.70;;;;;;;15.17;54.25;98653.47;5039620;28;20239;-82
2021/04/30 00:48:09;;;;;;;6.17;2.80;;;;;;;15.12;53.76;98642.69;5033165;28;20230;-85
2021/04/30 00:50:35;;;;;;;4.20;2.87;;;;;;;15.08;54.39;98644.31;5042960;28;20226;-85
2021/04/30 00:53:01;;;;;;;5.30;2.83;;;;;;;15.14;54.08;98653.19;5038179;28;20260;-82
2021/04/30 00:55:27;;;;;;;4.40;2.90;;;;;;;15.09;53.94;98647.81;5005997;28;20234;-82
2021/04/30 00:57:58;;;;;;;4.47;2.63;;;;;;;15.11;53.78;98649.19;5022738;28;20250;-82
2021/04/30 01:00:28;;;;;;;4.13;2.80;;;;;;;14.99;53.86;98635.97;5021340;28;20652;-85
2021/04/30 01:02:54;;;;;;;4.20;2.67;;;;;;;14.99;54.31;98648.63;5037240;28;20235;-81
2021/04/30 01:05:22;;;;;;;4.03;3.03;;;;;;;15.02;54.05;98650.00;5037123;28;20292;-83
2021/04/30 01:07:49;;;;;;;4.70;2.93;;;;;;;15.00;54.14;98661.06;5039167;28;20235;-83
2021/04/30 01:10:16;;;;;;;2.77;2.47;;;;;;;14.88;54.68;98647.81;5022213;28;20652;-83
2021/04/30 01:12:43;;;;;;;5.30;2.90;;;;;;;14.91;54.79;98652.69;5043106;28;20230;-84
2021/04/30 01:15:12;;;;;;;4.33;2.60;;;;;;;14.82;55.13;98651.63;5058861;28;20582;-82
2021/04/30 01:17:38;;;;;;;6.17;2.80;;;;;;;14.77;55.29;98645.41;5058726;28;20595;-83
2021/04/30 01:20:06;;;;;;;3.37;2.70;;;;;;;14.88;55.21;98655.91;5058358;28;20738;-83
2021/04/30 01:22:40;;;;;;;4.97;2.57;;;;;;;14.82;55.43;98665.13;5024341;28;20663;-87
2021/04/30 01:25:18;;;;;;;3.73;2.90;;;;;;;14.80;55.70;98667.25;5039105;28;20536;-86
2021/04/30 01:27:45;;;;;;;3.90;3.10;;;;;;;14.71;56.30;98676.97;5025044;28;20237;-87
2021/04/30 01:30:33;;;;;;;5.30;3.20;;;;;;;14.62;56.49;98659.72;5058371;28;20231;-79
2021/04/30 01:33:00;;;;;;;5.03;3.30;;;;;;;14.50;56.94;98654.59;5071466;28;20224;-86
2021/04/30 01:35:32;;;;;;;3.60;2.87;;;;;;;14.58;57.24;98661.31;5038271;28;20252;-87
2021/04/30 01:37:59;;;;;;;5.57;3.23;;;;;;;14.61;56.93;98658.09;5025244;28;20222;-87
2021/04/30 01:40:29;;;;;;;4.23;3.17;;;;;;;14.51;57.53;98666.97;5058376;28;20532;-86
2021/04/30 01:43:05;;;;;;;3.80;3.20;;;;;;;14.36;57.88;98660.78;5058267;28;20226;-87
2021/04/30 01:45:52;;;;;;;4.67;3.13;;;;;;;14.49;57.63;98679.91;5058580;28;20260;-89
2021/04/30 01:48:22;;;;;;;6.77;3.20;;;;;;;14.40;57.47;98678.81;5041525;28;20234;-85
2021/04/30 01:50:48;;;;;;;3.40;3.10;;;;;;;14.29;57.93;98671.75;5041855;28;20583;-87
2021/04/30 01:53:18;;;;;;;4.83;3.00;;;;;;;14.25;58.04;98676.06;5041880;28;20233;-88
2021/04/30 01:55:45;;;;;;;5.90;3.00;;;;;;;14.22;58.53;98687.38;5075106;28;20297;-86
2021/04/30 01:58:12;;;;;;;3.43;3.10;;;;;;;14.09;58.74;98682.50;5055689;28;20231;-88
2021/04/30 02:00:38;;;;;;;3.83;3.00;;;;;;;14.04;59.14;98677.09;5055832;28;20230;-89
2021/04/30 02:03:05;;;;;;;3.83;3.20;;;;;;;14.04;59.50;98683.28;5038265;28;20585;-88
2021/04/30 02:05:33;;;;;;;4.13;3.20;;;;;;;14.03;60.12;98680.88;5074607;28;20232;-87
2021/04/30 02:08:05;;;;;;;3.33;2.90;;;;;;;14.02;60.85;98695.41;5058249;28;20533;-87
2021/04/30 02:10:32;;;;;;;4.17;3.00;;;;;;;14.02;61.13;98695.41;5021473;28;20234;-88
2021/04/30 02:12:59;;;;;;;4.50;3.00;;;;;;;13.93;61.57;98694.28;5038165;28;20286;-88
2021/04/30 02:15:27;;;;;;;3.10;2.80;;;;;;;13.90;62.38;98690.25;5072874;28;20576;-85
2021/04/30 02:17:54;;;;;;;4.57;3.10;;;;;;;13.86;63.14;98694.53;5074703;28;20228;-88
2021/04/30 02:20:22;;;;;;;4.27;3.10;;;;;;;13.88;63.31;98705.84;5057159;28;20247;-89
2021/04/30 02:22:49;;;;;;;3.67;3.07;;;;;;;13.86;63.30;98702.59;5058001;28;20222;-89
2021/04/30 02:25:17;;;;;;;3.90;3.33;;;;;;;13.86;63.13;98705.28;5042016;28;20278;-87
2021/04/30 02:27:44;;;;;;;3.60;3.27;;;;;;;13.93;62.69;98718.53;5021496;28;20705;-87
2021/04/30 02:30:12;;;;;;;5.37;3.37;;;;;;;13.83;62.02;98718.47;5051484;28;20252;-89
2021/04/30 02:32:39;;;;;;;3.80;3.40;;;;;;;13.80;62.41;98725.22;5074344;28;20227;-87
2021/04/30 02:35:09;;;;;;;4.73;2.83;;;;;;;13.73;63.09;98718.41;5046930;28;20226;-86
2021/04/30 02:37:35;;;;;;;4.67;3.27;;;;;;;13.65;63.86;98725.13;5037579;28;20249;-84
2021/04/30 02:40:04;;;;;;;5.10;3.80;;;;;;;13.63;64.00;98727.25;5028744;28;20227;-86
2021/04/30 02:42:31;;;;;;;3.67;3.33;;;;;;;13.60;63.75;98722.41;5037970;28;20247;-86
2021/04/30 02:45:00;;;;;;;5.73;3.73;;;;;;;13.50;63.50;98704.31;5044592;28;20230;-86
2021/04/30 02:47:31;;;;;;;4.37;3.40;;;;;;;13.47;62.87;98712.09;5005221;28;20238;-87
2021/04/30 02:50:02;;;;;;;4.37;3.80;;;;;;;13.56;62.87;98732.88;5047510;28;20614;-86
2021/04/30 02:52:28;;;;;;;4.97;3.37;;;;;;;13.58;61.73;98724.53;5040797;28;20303;-86
2021/04/30 02:54:55;;;;;;;4.37;3.70;;;;;;;13.62;60.69;98720.28;5074269;28;20284;-87
2021/04/30 02:57:21;;;;;;;5.47;3.37;;;;;;;13.74;59.40;98734.31;5040572;28;20238;-85
2021/04/30 02:59:48;;;;;;;4.30;3.90;;;;;;;13.87;58.41;98724.94;5054123;28;20223;-85
2021/04/30 03:02:15;;;;;;;4.57;3.57;;;;;;;13.86;58.37;98732.22;5053217;28;20281;-84
2021/04/30 03:04:42;;;;;;;8.20;3.73;;;;;;;13.81;58.24;98731.41;5042900;28;20626;-87
2021/04/30 03:07:08;;;;;;;5.23;3.30;;;;;;;13.88;58.17;98740.84;5073873;28;20313;-86
2021/04/30 03:09:35;;;;;;;3.63;2.93;;;;;;;13.92;57.98;98741.13;5073886;28;20291;-86
2021/04/30 03:12:02;;;;;;;3.93;3.30;;;;;;;13.81;58.13;98723.31;5056572;28;20240;-84
2021/04/30 03:14:29;;;;;;;4.13;3.50;;;;;;;13.81;58.19;98728.72;5074769;28;20715;-86
2021/04/30 03:16:55;;;;;;;5.33;3.50;;;;;;;13.83;58.52;98740.00;5056957;28;20279;-86
2021/04/30 03:19:22;;;;;;;7.60;3.50;;;;;;;13.79;58.26;98741.59;5072953;28;20250;-87
2021/04/30 03:21:48;;;;;;;4.97;3.43;;;;;;;13.84;58.43;98741.63;5037176;28;20257;-86
2021/04/30 03:24:15;;;;;;;7.17;3.73;;;;;;;13.77;58.75;98746.44;5036673;28;20230;-87
2021/04/30 03:26:41;;;;;;;4.47;3.57;;;;;;;13.77;58.61;98749.13;5055976;28;20234;-84
2021/04/30 03:29:08;;;;;;;4.40;3.30;;;;;;;13.78;59.00;98748.88;5057251;28;20229;-87
2021/04/30 03:31:34;;;;;;;4.33;3.50;;;;;;;13.76;58.47;98763.69;5039443;28;20237;-83
2021/04/30 03:34:01;;;;;;;5.20;3.57;;;;;;;13.80;58.75;98772.84;5053461;28;20337;-81
2021/04/30 03:36:28;;;;;;;4.57;3.33;;;;;;;13.77;58.22;98758.00;5069207;28;20234;-87
2021/04/30 03:38:54;;;;;;;4.47;3.67;;;;;;;13.74;58.65;98763.94;5056764;28;20225;-86
2021/04/30 03:41:21;;;;;;;4.50;3.57;;;;;;;13.75;58.79;98772.81;5059252;28;20560;-86
2021/04/30 03:43:47;;;;;;;4.03;3.60;;;;;;;13.82;58.88;98782.28;5037003;28;20226;-86
2021/04/30 03:46:13;;;;;;;7.27;4.00;;;;;;;13.78;58.60;98777.66;5065546;28;20229;-86
2021/04/30 03:48:40;;;;;;;6.00;3.63;;;;;;;13.76;58.95;98786.03;5073742;28;20276;-86
2021/04/30 03:51:06;;;;;;;3.87;3.47;;;;;;;13.72;59.03;98790.28;5056537;28;20230;-86
2021/04/30 03:53:32;;;;;;;6.00;3.57;;;;;;;13.72;58.91;98786.81;5056869;28;20232;-86
2021/04/30 03:55:58;;;;;;;7.60;4.23;;;;;;;13.74;58.14;98776.56;5047364;28;20223;-86
2021/04/30 03:58:25;;;;;;;5.33;4.40;;;;;;;13.92;57.72;98801.19;5036568;28;20697;-84
2021/04/30 04:01:02;;;;;;;6.00;4.37;;;;;;;13.99;57.93;98804.47;5055280;28;20233;-79
2021/04/30 04:03:28;;;;;;;5.70;4.27;;;;;;;14.11;57.46;98815.00;5092799;28;20224;-83
2021/04/30 04:05:55;;;;;;;4.90;3.77;;;;;;;14.15;57.48;98821.50;5068872;28;20234;-78
2021/04/30 04:08:37;;;;;;;5.63;4.00;;;;;;;14.00;58.04;98816.03;5083610;23;20290;-82
2021/04/30 04:11:11;;;;;;;4.93;4.43;;;;;;;14.06;59.23;98836.53;5063457;28;20249;-86
2021/04/30 04:13:37;;;;;;;6.10;4.37;;;;;;;13.89;59.49;98830.53;5057862;28;20225;-84
2021/04/30 04:16:04;;;;;;;6.70;4.37;;;;;;;13.84;60.04;98844.75;5056639;28;20304;-85
2021/04/30 04:18:31;;;;;;;5.70;4.57;;;;;;;13.90;61.17;98859.06;5023618;28;20226;-85
2021/04/30 04:20:57;;;;;;;5.30;4.77;;;;;;;13.85;61.06;98867.13;5041894;28;20577;-85
2021/04/30 04:23:24;;;;;;;4.93;4.53;;;;;;;13.78;61.81;98882.66;5057103;28;20509;-84
2021/04/30 04:25:50;;;;;;;8.10;4.77;;;;;;;13.60;62.82;98887.38;5040461;28;20222;-86
2021/04/30 04:28:16;;;;;;;6.43;5.07;;;;;;;13.52;64.31;98895.94;5039514;28;20230;-84
2021/04/30 04:30:42;;;;;;;5.07;4.57;;;;;;;13.53;64.44;98892.16;5039543;28;20281;-85
2021/04/30 04:33:09;;;;;;;5.87;5.30;;;;;;;13.50;65.35;98900.75;5059937;28;20223;-83
2021/04/30 04:35:35;;;;;;;8.73;5.43;;;;;;;13.44;66.96;98915.22;5075067;28;20229;-82
2021/04/30 04:38:04;;;;;;;5.50;5.00;;;;;;;13.32;65.77;98917.28;5066232;28;20213;-79
2021/04/30 04:40:48;;;;;;;8.20;5.57;;;;;;;13.12;68.34;98922.44;5182726;22;20217;-80
2021/04/30 04:43:19;;;;;;;6.60;5.73;;;;;;;13.11;66.42;98902.78;5174915;22;20243;-80
2021/04/30 04:45:53;;;;;;;6.00;5.40;;;;;;;13.12;66.88;98917.88;5162419;23;20256;-79
2021/04/30 04:48:30;;;;;;;6.07;5.57;;;;;;;12.92;68.16;98916.81;5106212;22;20250;-81
2021/04/30 04:51:15;;;;;;;5.83;5.23;;;;;;;12.89;68.28;98923.50;5104693;28;20152;-82
2021/04/30 04:53:49;;;;;;;6.23;5.63;;;;;;;12.82;68.74;98919.38;5143543;22;20300;-81
2021/04/30 04:56:52;;;;;;;6.97;6.10;;;;;;;12.80;69.36;98931.19;5086731;28;20235;-82
2021/04/30 04:59:33;;;;;;;7.87;5.90;;;;;;;12.70;71.19;98927.56;5098779;28;20224;-81
2021/04/30 05:02:24;;;;;;;6.90;6.27;;;;;;;12.60;71.66;98911.31;5106001;23;20229;-79
2021/04/30 05:05:16;;;;;;;7.97;6.70;;;;;;;12.41;72.73;98929.59;5128334;23;20211;-82
2021/04/30 05:08:07;;;;;;;10.27;6.80;;;;;;;12.58;72.96;98949.19;5075165;22;20272;-77
2021/04/30 05:10:49;;;;;;;7.80;6.90;;;;;;;12.55;73.18;98932.78;5103911;22;20214;-79
2021/04/30 05:13:46;;;;;;;8.00;7.30;;;;;;;12.66;73.59;98951.44;5205223;22;20197;-82
2021/04/30 05:16:36;;;;;;;8.17;7.07;;;;;;;12.70;73.12;98924.88;5091301;22;20219;-80
2021/04/30 05:23:09;;;;;;;8.83;7.23;;;;;;;13.30;71.46;98943.59;5017159;28;20227;-80
2021/04/30 05:25:40;;;;;;;9.00;6.57;;;;;;;13.50;70.91;98938.44;4588948;22;15011876;-81
2021/04/30 05:28:32;;;;;;;8.13;7.23;;;;;;;13.59;70.82;98942.28;5073486;23;20204;-79
2021/04/30 05:31:37;;;;;;;8.40;7.27;;;;;;;13.74;70.71;98944.28;5186304;23;20210;31
2021/04/30 05:34:35;;;;;;;8.33;7.60;;;;;;;13.70;70.98;98948.56;5086139;22;20238;-77
2021/04/30 05:37:52;;;;;;;9.33;6.77;;;;;;;13.79;70.60;98948.91;5216682;22;20246;-80
2021/04/30 05:40:40;;;;;;;8.30;7.50;;;;;;;13.76;71.03;98944.06;5091951;28;20235;-82
2021/04/30 05:43:07;;;;;;;7.70;7.00;;;;;;;13.86;69.81;98944.91;5078510;28;20630;-86
2021/04/30 05:45:33;;;;;;;9.27;7.20;;;;;;;13.78;70.15;98947.28;5074521;28;20252;-84
2021/04/30 05:47:59;;;;;;;8.57;7.73;;;;;;;13.92;70.25;98960.06;5064635;28;20504;-85
2021/04/30 05:50:25;;;;;;;10.73;7.90;;;;;;;13.90;70.08;98950.63;5037992;28;20275;-87
2021/04/30 05:52:52;;;;;;;8.73;7.83;;;;;;;13.82;69.88;98951.91;5063882;28;20240;-84
2021/04/30 05:55:18;;;;;;;14.13;7.60;;;;;;;13.85;69.33;98955.97;5058718;28;20236;-86
2021/04/30 05:57:46;;;;;;;8.53;7.33;;;;;;;13.84;69.45;98949.78;5051151;28;20226;-85
2021/04/30 06:00:13;;;;;;;8.33;7.53;;;;;;;13.86;70.13;98949.50;5054780;28;20246;-86
2021/04/30 06:02:39;;;;;;;8.60;7.70;;;;;;;13.93;67.96;98972.47;5060486;28;20261;-85
2021/04/30 06:05:28;;;;;;;7.90;7.13;;;;;;;14.03;68.22;98972.53;5027319;28;20225;-83
2021/04/30 06:08:14;;;;;;;9.03;7.40;;;;;;;13.97;68.86;98976.25;5084447;28;20507;-84
2021/04/30 06:10:43;;;;;;;8.00;7.20;;;;;;;14.05;68.14;98959.63;5077530;28;20230;-85
2021/04/30 06:13:09;;;;;;;8.37;7.47;;;;;;;14.31;67.43;98984.06;5058033;28;20342;-86
2021/04/30 06:15:36;;;;;;;8.23;7.43;;;;;;;14.48;66.85;98971.25;5058024;28;20229;-86
2021/04/30 06:18:02;;;;;;;7.60;6.80;;;;;;;14.60;66.20;98966.50;5057437;28;20543;-86
2021/04/30 06:20:28;;;;;;;7.70;6.37;;;;;;;14.95;65.62;98971.22;5058132;28;20325;-86
2021/04/30 06:22:55;;;;;;;8.30;6.70;;;;;;;14.98;64.24;98979.59;5069577;28;20222;-86
2021/04/30 06:25:21;;;;;;;7.70;6.90;;;;;;;14.90;64.63;98974.72;5054516;28;20225;-86
2021/04/30 06:27:51;;;;;;;8.37;6.57;;;;;;;15.06;65.52;98966.69;5042352;28;20240;-83
2021/04/30 06:30:18;;;;;;;7.20;6.50;;;;;;;15.24;63.83;98968.91;5040886;28;20248;-85
2021/04/30 06:32:44;;;;;;;8.73;7.03;;;;;;;15.25;63.62;98959.75;5038603;28;20222;-80
2021/04/30 06:35:11;;;;;;;7.40;6.47;;;;;;;15.32;64.33;98979.16;5037948;28;20237;-80
2021/04/30 06:37:39;;;;;;;7.77;6.40;;;;;;;15.37;63.36;98971.09;5037898;28;20253;-82
2021/04/30 06:40:07;;;;;;;5.77;5.27;;;;;;;15.58;61.67;98970.09;5057158;28;20229;-81
2021/04/30 06:42:34;;;;;;;6.73;5.60;;;;;;;15.82;60.63;98970.38;5073943;28;20231;-86
2021/04/30 06:45:01;;;;;;;6.90;5.40;;;;;;;15.89;60.52;98960.13;5057426;28;20535;-81
2021/04/30 06:47:28;;;;;;;6.87;5.87;;;;;;;16.23;59.40;98965.78;5057390;28;20263;-85
2021/04/30 06:49:55;;;;;;;6.33;5.57;;;;;;;16.71;58.36;98964.34;5039526;28;20227;-86
2021/04/30 06:52:22;;;;;;;6.60;5.90;;;;;;;16.93;57.98;98959.41;5053698;28;20237;-85
2021/04/30 06:54:49;;;;;;;6.30;5.70;;;;;;;17.28;57.01;98969.25;5054233;28;20223;-85
2021/04/30 06:57:35;;;;;;;5.53;5.03;;;;;;;17.55;55.58;98963.41;5060704;28;20319;-86
2021/04/30 07:00:04;;;;;;;5.40;4.90;;;;;;;17.70;55.37;98966.03;5052033;28;20317;-86
2021/04/30 07:02:30;;;;;;;5.30;4.83;;;;;;;17.53;55.02;98969.09;5037451;28;20249;-86
2021/04/30 07:04:58;;;;;;;6.93;4.90;;;;;;;17.59;53.93;98976.13;5021175;28;20225;-85
2021/04/30 07:07:24;;;;;;;5.10;4.60;;;;;;;17.86;53.23;98981.09;5054023;28;20225;-86
2021/04/30 07:09:51;;;;;;;5.40;4.90;;;;;;;17.87;53.21;98981.91;5049048;28;20275;-86
2021/04/30 07:12:19;;;;;;;5.73;4.63;;;;;;;17.97;52.84;98965.56;5054783;28;20283;-85
2021/04/30 07:14:46;;;;;;;5.27;4.77;;;;;;;18.15;52.18;98983.03;5057382;28;20221;-85
2021/04/30 07:17:13;;;;;;;5.10;4.27;;;;;;;18.44;51.94;98968.38;5057232;28;20237;-85
2021/04/30 07:19:40;;;;;;;5.03;4.33;;;;;;;18.65;50.91;98982.59;5061714;28;20601;-86
2021/04/30 07:22:11;;;;;;;4.73;4.27;;;;;;;18.97;50.13;98983.84;5053371;28;20236;-86
2021/04/30 07:24:40;;;;;;;4.40;4.00;;;;;;;19.27;49.29;98981.53;5065172;28;20673;-86
2021/04/30 07:27:07;;;;;;;4.80;4.20;;;;;;;19.59;48.27;98983.59;5073929;28;20241;-84
2021/04/30 07:29:34;;;;;;;4.53;4.00;;;;;;;19.56;47.19;98973.31;5064110;28;20275;-85
2021/04/30 07:32:01;;;;;;;5.20;4.17;;;;;;;19.23;47.46;98985.13;5036880;28;20283;-80
2021/04/30 07:34:45;;;;;;;4.67;4.27;;;;;;;19.35;47.90;98983.63;5067864;28;20228;-84
2021/04/30 07:37:11;;;;;;;4.97;4.47;;;;;;;19.64;47.44;98980.00;5077555;28;20505;-85
2021/04/30 07:39:40;;;;;;;5.07;4.57;;;;;;;19.56;47.63;98970.59;5050006;28;20245;-82
2021/04/30 07:42:08;;;;;;;5.00;4.50;;;;;;;19.51;47.67;98967.94;5054600;28;20632;-84
2021/04/30 07:44:37;;;;;;;4.87;4.37;;;;;;;19.55;46.72;98974.41;5051655;28;20703;-85
2021/04/30 07:47:04;;;;;;;4.70;4.20;;;;;;;19.68;46.73;98967.44;5058205;28;20237;-84
2021/04/30 07:49:31;;;;;;;5.17;4.33;;;;;;;20.24;45.61;98980.94;5030562;28;20223;-81
2021/04/30 07:51:58;;;;;;;6.40;4.80;;;;;;;20.72;44.80;98984.16;5060284;28;20300;-83
2021/04/30 07:54:24;;;;;;;4.67;3.93;;;;;;;21.12;43.40;98981.75;5059571;28;20233;-85
2021/04/30 07:56:56;;;;;;;4.87;4.47;;;;;;;21.28;43.12;98983.88;5044410;28;20225;-83
2021/04/30 07:59:22;;;;;;;5.53;4.60;;;;;;;21.29;42.19;98996.38;5076790;28;20274;-84
2021/04/30 08:01:48;;;;;;;5.30;4.80;;;;;;;20.99;42.92;98997.00;5077685;28;20228;-83
2021/04/30 08:04:16;;;;;;;4.93;4.53;;;;;;;20.85;43.59;98988.84;5042862;28;20637;-84
2021/04/30 08:06:43;;;;;;;4.80;4.40;;;;;;;21.13;43.46;99002.44;5043495;28;20229;-84
2021/04/30 08:09:09;;;;;;;4.87;4.47;;;;;;;21.35;41.92;98992.47;5075479;28;20656;-85
2021/04/30 08:11:36;;;;;;;5.50;5.00;;;;;;;21.41;42.83;98996.69;5057719;28;20313;-84
2021/04/30 08:14:06;;;;;;;5.57;5.03;;;;;;;21.09;43.60;99000.31;5056349;28;20648;-84
2021/04/30 08:16:34;;;;;;;6.07;4.90;;;;;;;21.03;43.50;99008.91;5039429;28;20230;-83
2021/04/30 08:19:00;;;;;;;5.57;4.93;;;;;;;20.80;44.17;98990.84;5039684;28;20230;-83
2021/04/30 08:21:27;;;;;;;5.00;4.60;;;;;;;20.64;44.79;98995.75;5074884;28;20227;-83
2021/04/30 08:23:54;;;;;;;7.13;4.50;;;;;;;20.55;45.40;99006.53;5076221;28;20234;-84
2021/04/30 08:26:20;;;;;;;4.60;4.00;;;;;;;20.25;45.65;98992.63;5075689;28;20227;-83
2021/04/30 08:28:50;;;;;;;5.70;4.43;;;;;;;20.04;45.82;98995.69;5076351;28;20278;-84
2021/04/30 08:31:17;;;;;;;5.47;4.80;;;;;;;20.06;45.82;98992.69;5044238;28;20641;-83
2021/04/30 08:33:43;;;;;;;4.87;4.47;;;;;;;20.26;46.03;98997.75;5023297;28;20499;-83
2021/04/30 08:36:09;;;;;;;5.50;4.13;;;;;;;20.43;45.45;98998.06;5036463;28;20232;-85
2021/04/30 08:38:38;;;;;;;5.07;4.67;;;;;;;20.51;45.07;98996.53;5075785;28;20291;-83
2021/04/30 08:41:05;;;;;;;5.10;4.60;;;;;;;20.64;44.10;98993.84;5064402;28;20226;-83
2021/04/30 08:43:31;;;;;;;5.90;4.90;;;;;;;20.51;44.60;98994.63;5039024;28;20226;-84
2021/04/30 08:45:57;;;;;;;5.47;5.00;;;;;;;20.37;45.24;98996.53;5053534;28;20235;-83
2021/04/30 08:48:25;;;;;;;5.73;5.20;;;;;;;20.30;45.44;98992.53;5074426;28;20240;-84
2021/04/30 08:50:54;;;;;;;5.63;5.07;;;;;;;20.39;45.89;99005.16;5055836;28;20239;-85
2021/04/30 08:53:21;;;;;;;5.53;5.03;;;;;;;20.34;45.94;98994.41;5055943;28;20244;-83
2021/04/30 08:55:51;;;;;;;12.67;9.20;;;;;;;20.49;45.94;98990.59;5064770;28;20617;-82
2021/04/30 08:58:26;;;;;;;6.13;5.63;;;;;;;20.66;45.17;98993.56;5058744;28;20232;-82
2021/04/30 09:00:54;;;;;;;5.83;5.30;;;;;;;20.59;45.50;98995.84;5055875;28;20243;-83
2021/04/30 09:03:21;;;;;;;5.93;5.37;;;;;;;20.82;44.29;98996.78;5075467;28;20304;-84
2021/04/30 09:05:50;;;;;;;5.23;4.83;;;;;;;21.07;43.30;98997.09;5052221;28;20630;-82
2021/04/30 09:08:17;;;;;;;5.90;5.50;;;;;;;21.34;42.83;98998.19;5022074;28;20257;-81
2021/04/30 09:11:04;;;;;;;5.70;5.30;;;;;;;21.73;43.08;98994.91;5042284;28;20304;-82
2021/04/30 09:13:31;;;;;;;6.07;5.57;;;;;;;21.73;41.44;99000.34;5073180;28;20527;-83
2021/04/30 09:16:05;;;;;;;5.27;4.77;;;;;;;21.91;40.85;99000.19;5041249;28;20234;-83
2021/04/30 09:18:33;;;;;;;6.03;4.87;;;;;;;21.88;40.40;98995.31;5041807;28;20599;-83
2021/04/30 09:21:08;;;;;;;5.43;4.93;;;;;;;21.72;41.07;98994.09;5036179;28;20392;-81
2021/04/30 09:23:46;;;;;;;5.47;4.87;;;;;;;21.47;41.38;98997.38;5038928;28;20601;-86
2021/04/30 09:26:35;;;;;;;6.13;5.10;;;;;;;21.06;42.27;99002.84;5057745;28;20632;-85
2021/04/30 09:29:08;;;;;;;5.67;5.17;;;;;;;20.92;42.38;98991.94;5058310;28;20228;-83
2021/04/30 09:31:44;;;;;;;5.47;4.80;;;;;;;20.90;41.73;98996.09;5038588;28;20229;-82
2021/04/30 09:34:23;;;;;;;5.30;4.77;;;;;;;20.85;42.08;98997.00;5037980;28;20220;-82
2021/04/30 09:37:12;;;;;;;5.20;4.70;;;;;;;20.82;41.37;98983.97;5052021;28;20712;-84
2021/04/30 09:40:12;;;;;;;5.37;4.87;;;;;;;20.50;42.05;98986.75;5075028;28;20286;-82
2021/04/30 09:42:40;;;;;;;5.50;5.10;;;;;;;20.47;43.32;98971.03;4999822;28;20219;-83
2021/04/30 09:45:07;;;;;;;5.07;4.67;;;;;;;20.44;42.67;98977.88;5055438;28;20227;-80
2021/04/30 09:47:35;;;;;;;4.90;4.50;;;;;;;20.51;42.76;98978.31;5029438;28;20227;-84
2021/04/30 09:50:06;;;;;;;4.37;4.00;;;;;;;20.84;42.73;98997.28;5021232;28;20231;-83
2021/04/30 09:52:32;;;;;;;4.27;3.97;;;;;;;20.93;41.64;98979.13;5036715;28;20590;-84
2021/04/30 09:55:03;;;;;;;5.10;4.70;;;;;;;20.94;41.93;98984.28;5058239;28;20238;-83
2021/04/30 09:57:31;;;;;;;5.57;4.90;;;;;;;20.94;41.47;98983.47;5057244;28;20288;-84
2021/04/30 10:00:08;;;;;;;5.47;4.97;;;;;;;21.00;41.91;98979.53;5074303;28;20235;-83
2021/04/30 10:02:44;;;;;;;5.20;4.77;;;;;;;20.91;40.77;98965.81;5058696;28;20279;-84
2021/04/30 10:05:18;;;;;;;4.03;3.73;;;;;;;20.78;40.06;98972.06;5041330;28;20222;-84
2021/04/30 10:08:13;;;;;;;4.83;4.43;;;;;;;20.79;39.62;98984.59;5057183;28;20230;-84
2021/04/30 10:10:39;;;;;;;4.70;4.30;;;;;;;20.96;39.20;98965.72;5041926;28;20219;-83
2021/04/30 10:13:06;;;;;;;4.97;4.57;;;;;;;20.97;39.96;98972.78;5044077;28;20227;-83
2021/04/30 10:15:33;;;;;;;4.37;4.07;;;;;;;20.77;39.77;98964.19;5040945;28;20265;-83
2021/04/30 10:18:00;;;;;;;5.27;4.23;;;;;;;20.97;40.30;98961.09;5033932;28;20222;-83
2021/04/30 10:20:26;;;;;;;4.03;3.73;;;;;;;20.98;39.47;98949.91;5021051;28;20569;-84
2021/04/30 10:23:05;;;;;;;3.70;3.40;;;;;;;20.98;39.47;98949.91;5068850;28;20236;-83
2021/04/30 10:25:32;;;;;;;4.00;2.90;;;;;;;21.41;37.49;98964.00;5057608;28;20230;-84
2021/04/30 10:27:59;;;;;;;3.73;3.43;;;;;;;21.71;37.13;98951.56;5061255;28;20224;-84
2021/04/30 10:30:46;;;;;;;4.87;4.17;;;;;;;22.38;37.02;98957.84;5036873;28;20276;-83
2021/04/30 10:33:17;;;;;;;4.00;3.60;;;;;;;23.34;35.58;98964.44;5068907;28;20232;-82
2021/04/30 10:36:02;;;;;;;3.70;3.40;;;;;;;24.24;32.93;98958.06;5057334;28;20321;-86
2021/04/30 10:38:30;;;;;;;3.20;2.97;;;;;;;24.68;30.98;98958.75;5049835;28;20225;-85
2021/04/30 10:40:58;;;;;;;3.47;2.90;;;;;;;24.94;30.83;98957.53;5037202;28;20228;-85
2021/04/30 10:43:25;;;;;;;2.63;2.42;;;;;;;25.17;30.86;98952.56;5069012;28;20227;-85
2021/04/30 10:46:13;;;;;;;3.15;2.85;;;;;;;25.19;29.77;98946.75;5056863;28;20261;-85
2021/04/30 10:49:08;;;;;;;2.80;2.60;;;;;;;24.00;31.08;98942.13;5069959;28;20573;-85
2021/04/30 10:51:36;;;;;;;2.60;2.40;;;;;;;24.34;32.17;98941.28;5040356;28;20239;-85
2021/04/30 10:54:26;;;;;;;2.40;2.20;;;;;;;24.58;31.35;98931.72;5056474;28;20224;-83
2021/04/30 10:57:00;;;;;;;2.33;1.95;;;;;;;24.47;31.59;98942.22;5073118;28;20316;-86
2021/04/30 10:59:41;;;;;;;1.88;1.38;;;;;;;24.70;29.69;98931.81;5053485;28;20644;-84
2021/04/30 11:02:17;;;;;;;1.88;1.60;;;;;;;24.81;29.63;98930.31;5038304;28;20240;-85
2021/04/30 11:05:02;;;;;;;1.35;1.25;;;;;;;25.20;29.09;98926.41;5073658;28;20236;-84
2021/04/30 11:07:34;;;;;;;1.67;1.45;;;;;;;25.60;29.22;98921.31;5035957;28;20257;-85
2021/04/30 11:10:23;;;;;;;2.08;1.98;;;;;;;25.64;28.63;98920.31;5040552;28;20225;-81
2021/04/30 11:13:07;;;;;;;2.75;2.55;;;;;;;25.68;29.52;98923.19;5067083;28;20230;-84
2021/04/30 11:15:52;;;;;;;2.80;2.17;;;;;;;25.75;29.86;98916.03;5060836;28;20237;-83
2021/04/30 11:18:23;;;;;;;3.45;3.15;;;;;;;25.56;31.30;98914.91;5043549;28;20285;-84
2021/04/30 11:21:12;;;;;;;3.45;3.15;;;;;;;24.98;32.21;98906.41;5060829;28;20221;-83
2021/04/30 11:23:41;;;;;;;4.35;2.90;;;;;;;24.68;32.52;98898.50;5077376;28;20276;-84
2021/04/30 11:26:15;;;;;;;2.70;2.50;;;;;;;24.33;34.01;98898.63;5043519;28;20302;-84
2021/04/30 11:28:41;;;;;;;3.08;2.88;;;;;;;24.23;33.82;98904.44;5049248;28;20643;-82
2021/04/30 11:31:11;;;;;;;2.95;2.75;;;;;;;24.14;34.10;98896.22;5041072;28;20699;-85
2021/04/30 11:33:40;;;;;;;3.38;2.80;;;;;;;23.99;33.92;98896.75;5068369;28;20220;-85
2021/04/30 11:36:08;;;;;;;2.85;2.65;;;;;;;23.75;34.13;98893.72;5060145;28;20248;-85
2021/04/30 11:38:36;;;;;;;2.80;2.60;;;;;;;23.55;34.83;98891.66;5036627;28;20264;-83
2021/04/30 11:41:02;;;;;;;2.60;2.40;;;;;;;23.79;34.49;98889.25;5017335;28;20235;-84
2021/04/30 11:43:29;;;;;;;3.13;2.80;;;;;;;23.72;34.00;98882.63;4992097;28;20222;-84
2021/04/30 11:45:56;;;;;;;3.25;2.95;;;;;;;23.73;33.56;98870.56;5036602;28;20260;-84
2021/04/30 11:48:27;;;;;;;2.63;2.42;;;;;;;23.84;33.63;98874.59;5030496;28;20231;-85
2021/04/30 11:51:01;;;;;;;3.22;3.00;;;;;;;23.98;33.39;98875.22;5000830;28;20262;-84
2021/04/30 11:53:27;;;;;;;2.47;2.28;;;;;;;24.03;33.43;98859.41;5039321;28;20222;-85
2021/04/30 11:55:54;;;;;;;2.50;2.30;;;;;;;24.25;34.35;98863.06;5036782;28;20316;-83